createdAt,value
2022-11-22T00:00:43.310Z,20.58
2022-11-22T00:03:10.304Z,20.88
2022-11-22T00:05:37.587Z,21.65
2022-11-22T00:08:04.860Z,20.73
2022-11-22T00:10:32.503Z,21.63
2022-11-22T00:12:59.623Z,20.70
2022-11-22T00:15:26.531Z,22.15
2022-11-22T00:17:53.358Z,20.75
2022-11-22T00:20:20.280Z,22.10
2022-11-22T00:22:47.677Z,20.75
2022-11-22T00:25:14.698Z,19.95
2022-11-22T00:27:41.926Z,21.13
2022-11-22T00:30:09.704Z,20.02
2022-11-22T00:32:36.706Z,21.05
2022-11-22T00:35:04.007Z,19.45
2022-11-22T00:37:30.951Z,17.55
2022-11-22T00:39:57.866Z,18.55
2022-11-22T00:42:25.020Z,18.75
2022-11-22T00:44:51.824Z,19.50
2022-11-22T00:47:18.724Z,20.05
2022-11-22T00:49:45.557Z,20.55
2022-11-22T00:52:12.457Z,20.30
2022-11-22T00:54:39.427Z,20.05
2022-11-22T00:57:06.460Z,20.40
2022-11-22T00:59:33.291Z,19.92
2022-11-22T01:02:00.161Z,19.55
2022-11-22T01:04:27.059Z,21.98
2022-11-22T01:06:54.014Z,20.77
2022-11-22T01:09:23.030Z,21.48
2022-11-22T01:11:50.865Z,21.77
2022-11-22T01:14:18.208Z,23.25
2022-11-22T01:16:45.694Z,21.02
2022-11-22T01:19:12.887Z,22.17
2022-11-22T01:21:40.288Z,22.10
2022-11-22T01:24:07.639Z,22.25
2022-11-22T01:26:35.396Z,21.92
2022-11-22T01:29:02.243Z,22.42
2022-11-22T01:31:30.285Z,25.00
2022-11-22T01:33:59.069Z,21.75
2022-11-22T01:36:27.741Z,23.13
2022-11-22T01:38:55.110Z,23.40
2022-11-22T01:41:22.084Z,24.58
2022-11-22T01:43:48.930Z,25.40
2022-11-22T01:46:19.985Z,23.88
2022-11-22T01:48:56.300Z,24.30
2022-11-22T01:51:35.765Z,25.38
2022-11-22T01:54:08.010Z,25.48
2022-11-22T01:56:37.674Z,26.42
2022-11-22T01:59:10.323Z,24.15
2022-11-22T02:01:37.930Z,23.85
2022-11-22T02:04:08.722Z,25.73
2022-11-22T02:06:57.681Z,26.77
2022-11-22T02:09:24.888Z,26.23
2022-11-22T02:11:56.165Z,25.90
2022-11-22T02:14:26.307Z,26.48
2022-11-22T02:19:43.806Z,26.67
2022-11-22T02:22:28.714Z,27.98
2022-11-22T02:25:07.683Z,29.48
2022-11-22T02:27:34.643Z,31.13
2022-11-22T02:30:01.454Z,30.33
2022-11-22T02:32:28.353Z,32.03
2022-11-22T02:34:55.167Z,31.80
2022-11-22T02:37:29.594Z,35.45
2022-11-22T02:40:01.420Z,30.00
2022-11-22T02:42:30.629Z,33.72
2022-11-22T02:44:57.426Z,35.72
2022-11-22T02:47:24.306Z,37.15
2022-11-22T02:49:53.355Z,39.03
2022-11-22T02:52:20.432Z,41.97
2022-11-22T02:54:47.267Z,40.38
2022-11-22T02:57:14.408Z,41.50
2022-11-22T02:59:41.350Z,42.47
2022-11-22T03:02:08.243Z,44.05
2022-11-22T03:04:35.125Z,45.05
2022-11-22T03:07:02.361Z,48.08
2022-11-22T03:09:29.813Z,43.05
2022-11-22T03:11:56.983Z,43.75
2022-11-22T03:14:24.042Z,43.83
2022-11-22T03:16:51.489Z,45.05
2022-11-22T03:19:18.547Z,43.50
2022-11-22T03:21:45.824Z,45.90
2022-11-22T03:24:12.862Z,46.05
2022-11-22T03:26:39.816Z,49.28
2022-11-22T03:29:06.659Z,45.45
2022-11-22T03:31:33.497Z,43.05
2022-11-22T03:34:00.517Z,47.25
2022-11-22T03:36:27.371Z,45.05
2022-11-22T03:38:54.142Z,42.75
2022-11-22T03:41:21.015Z,47.20
2022-11-22T03:43:47.888Z,47.45
2022-11-22T03:46:16.313Z,47.85
2022-11-22T03:48:43.270Z,47.92
2022-11-22T03:51:10.219Z,47.92
2022-11-22T03:53:37.071Z,49.03
2022-11-22T03:56:04.945Z,50.25
2022-11-22T03:58:32.059Z,50.35
2022-11-22T04:00:59.478Z,55.90
2022-11-22T04:03:26.455Z,51.17
2022-11-22T04:05:53.434Z,51.15
2022-11-22T04:08:20.258Z,43.63
2022-11-22T04:10:49.353Z,42.10
2022-11-22T04:13:16.549Z,41.22
2022-11-22T04:15:43.383Z,40.83
2022-11-22T04:18:11.605Z,46.65
2022-11-22T04:20:58.031Z,41.67
2022-11-22T04:23:32.271Z,41.63
2022-11-22T04:26:01.002Z,38.05
2022-11-22T04:28:47.021Z,37.60
2022-11-22T04:31:33.105Z,37.33
2022-11-22T04:33:59.999Z,36.53
2022-11-22T04:36:26.771Z,37.10
2022-11-22T04:38:53.633Z,36.58
2022-11-22T04:41:20.544Z,35.58
2022-11-22T04:44:05.736Z,33.10
2022-11-22T04:46:32.655Z,30.73
2022-11-22T04:48:59.420Z,34.85
2022-11-22T04:51:44.754Z,32.08
2022-11-22T04:54:11.588Z,31.50
2022-11-22T04:56:38.391Z,32.20
2022-11-22T04:59:05.445Z,32.22
2022-11-22T05:01:32.400Z,33.55
2022-11-22T05:03:59.327Z,35.83
2022-11-22T05:06:26.266Z,34.38
2022-11-22T05:08:53.277Z,32.55
2022-11-22T05:11:20.078Z,31.15
2022-11-22T05:13:46.957Z,32.05
2022-11-22T05:16:15.717Z,31.38
2022-11-22T05:18:43.165Z,31.83
2022-11-22T05:21:12.864Z,28.90
2022-11-22T05:23:55.704Z,31.48
2022-11-22T05:26:35.323Z,30.70
2022-11-22T05:29:10.501Z,29.15
2022-11-22T05:31:39.510Z,29.30
2022-11-22T05:34:06.667Z,28.80
2022-11-22T05:36:35.118Z,29.05
2022-11-22T05:39:02.789Z,28.27
2022-11-22T05:41:29.748Z,26.60
2022-11-22T05:43:57.193Z,26.40
2022-11-22T05:46:29.463Z,26.25
2022-11-22T05:48:58.024Z,28.08
2022-11-22T05:51:33.695Z,28.05
2022-11-22T05:54:02.213Z,25.90
2022-11-22T05:56:29.035Z,26.33
2022-11-22T05:58:56.023Z,26.30
2022-11-22T06:01:24.444Z,24.80
2022-11-22T06:03:52.156Z,23.10
2022-11-22T06:06:19.446Z,21.08
2022-11-22T06:08:48.369Z,23.88
2022-11-22T06:11:21.365Z,22.60
2022-11-22T06:13:53.554Z,19.58
2022-11-22T06:16:20.499Z,21.27
2022-11-22T06:18:47.899Z,19.38
2022-11-22T06:21:17.898Z,19.83
2022-11-22T06:23:44.994Z,19.92
2022-11-22T06:26:14.735Z,19.90
2022-11-22T06:28:42.010Z,19.50
2022-11-22T06:31:16.607Z,18.67
2022-11-22T06:33:44.381Z,19.27
2022-11-22T06:36:16.865Z,18.45
2022-11-22T06:38:45.383Z,17.05
2022-11-22T06:41:17.813Z,18.05
2022-11-22T06:43:48.982Z,17.75
2022-11-22T06:46:19.072Z,19.15
2022-11-22T06:48:46.579Z,16.63
2022-11-22T06:51:21.973Z,15.80
2022-11-22T06:53:50.009Z,16.75
2022-11-22T06:56:22.764Z,17.25
2022-11-22T06:58:51.557Z,16.38
2022-11-22T07:01:21.279Z,16.38
2022-11-22T07:03:49.182Z,16.95
2022-11-22T07:06:17.688Z,16.65
2022-11-22T07:08:45.255Z,16.05
2022-11-22T07:11:17.359Z,14.85
2022-11-22T07:13:44.728Z,16.15
2022-11-22T07:16:13.490Z,14.82
2022-11-22T07:18:40.602Z,15.88
2022-11-22T07:21:13.119Z,16.33
2022-11-22T07:23:42.335Z,16.50
2022-11-22T07:26:09.825Z,16.25
2022-11-22T07:28:37.364Z,15.80
2022-11-22T07:31:07.117Z,15.90
2022-11-22T07:33:34.173Z,16.27
2022-11-22T07:36:15.125Z,16.15
2022-11-22T07:38:42.199Z,14.95
2022-11-22T07:41:09.240Z,15.70
2022-11-22T07:43:36.692Z,15.98
2022-11-22T07:46:08.674Z,15.77
2022-11-22T07:48:35.580Z,17.45
2022-11-22T07:51:06.899Z,14.05
2022-11-22T07:53:35.056Z,16.88
2022-11-22T07:56:05.788Z,18.13
2022-11-22T07:58:33.677Z,17.85
2022-11-22T08:01:09.185Z,14.80
2022-11-22T08:03:37.034Z,16.42
2022-11-22T08:06:05.894Z,16.83
2022-11-22T08:08:33.625Z,18.63
2022-11-22T08:11:00.574Z,18.92
2022-11-22T08:13:28.091Z,20.17
2022-11-22T08:15:57.543Z,20.08
2022-11-22T08:18:26.567Z,20.63
2022-11-22T08:21:02.443Z,20.33
2022-11-22T08:23:29.354Z,19.48
2022-11-22T08:25:58.516Z,19.98
2022-11-22T08:28:25.450Z,18.63
2022-11-22T08:30:52.626Z,17.05
2022-11-22T08:33:19.526Z,16.45
2022-11-22T08:35:50.183Z,16.50
2022-11-22T08:38:17.108Z,13.90
2022-11-22T08:40:43.899Z,13.60
2022-11-22T08:43:10.734Z,11.93
2022-11-22T08:45:38.278Z,12.90
2022-11-22T08:48:05.268Z,12.60
2022-11-22T08:50:32.100Z,12.77
2022-11-22T08:53:01.483Z,11.27
2022-11-22T08:55:28.324Z,11.88
2022-11-22T08:57:59.418Z,11.95
2022-11-22T09:00:32.893Z,11.25
2022-11-22T09:03:00.376Z,9.80
2022-11-22T09:05:27.254Z,11.98
2022-11-22T09:10:40.942Z,10.93
2022-11-22T09:13:07.735Z,11.23
2022-11-22T09:15:34.662Z,11.75
2022-11-22T09:18:04.411Z,11.10
2022-11-22T09:20:31.382Z,11.60
2022-11-22T09:22:58.165Z,11.05
2022-11-22T09:25:25.019Z,11.20
2022-11-22T09:27:51.812Z,12.52
2022-11-22T09:30:18.721Z,12.63
2022-11-22T09:32:45.693Z,12.48
2022-11-22T09:35:12.598Z,11.43
2022-11-22T09:37:39.396Z,12.95
2022-11-22T09:40:06.949Z,11.75
2022-11-22T09:43:18.424Z,11.23
2022-11-22T09:46:23.646Z,10.20
2022-11-22T09:49:21.177Z,11.60
2022-11-22T09:52:08.157Z,12.02
2022-11-22T09:54:43.980Z,12.07
2022-11-22T09:57:18.598Z,12.88
2022-11-22T09:59:50.564Z,13.63
2022-11-22T10:02:27.605Z,14.20
2022-11-22T10:05:01.256Z,13.90
2022-11-22T10:08:22.248Z,14.13
2022-11-22T10:10:53.771Z,13.52
2022-11-22T10:13:31.199Z,13.75
2022-11-22T10:16:21.059Z,14.73
2022-11-22T10:18:56.988Z,15.35
2022-11-22T10:21:23.920Z,15.75
2022-11-22T10:23:50.697Z,15.23
2022-11-22T10:26:25.222Z,15.05
2022-11-22T10:29:10.505Z,15.02
2022-11-22T10:31:43.291Z,16.52
2022-11-22T10:34:10.090Z,15.93
2022-11-22T10:37:06.331Z,18.70
2022-11-22T10:39:43.587Z,18.83
2022-11-22T10:42:27.964Z,18.90
2022-11-22T10:45:10.173Z,17.13
2022-11-22T10:47:52.229Z,19.05
2022-11-22T10:50:22.251Z,19.15
2022-11-22T10:52:57.807Z,18.45
2022-11-22T10:55:47.552Z,18.40
2022-11-22T10:58:48.415Z,18.52
2022-11-22T11:01:46.087Z,20.70
2022-11-22T11:04:17.112Z,20.48
2022-11-22T11:07:11.565Z,24.25
2022-11-22T11:12:54.928Z,21.08
2022-11-22T11:15:28.254Z,20.83
2022-11-22T11:18:01.370Z,21.55
2022-11-22T11:20:41.501Z,21.95
2022-11-22T11:23:15.840Z,20.40
2022-11-22T11:25:45.951Z,23.30
2022-11-22T11:28:28.579Z,21.52
2022-11-22T11:31:01.140Z,21.13
2022-11-22T11:33:33.381Z,21.55
2022-11-22T11:36:06.890Z,22.13
2022-11-22T11:38:42.316Z,20.25
2022-11-22T11:41:26.316Z,21.50
2022-11-22T11:43:55.489Z,20.75
2022-11-22T11:46:23.128Z,18.17
2022-11-22T11:48:51.647Z,20.63
2022-11-22T11:51:23.160Z,19.60
2022-11-22T11:53:55.972Z,18.92
2022-11-22T11:56:47.017Z,16.58
2022-11-22T11:59:25.915Z,19.45
2022-11-22T12:01:57.277Z,17.85
2022-11-22T12:04:50.328Z,16.92
2022-11-22T12:07:47.038Z,16.83
2022-11-22T12:10:37.967Z,14.32
2022-11-22T12:13:51.543Z,14.50
2022-11-22T12:16:44.122Z,15.50
2022-11-22T12:19:43.457Z,16.45
2022-11-22T12:22:49.784Z,15.43
2022-11-22T12:25:33.224Z,18.00
2022-11-22T12:28:24.195Z,14.63
2022-11-22T12:31:15.306Z,14.52
2022-11-22T12:33:47.570Z,14.05
2022-11-22T12:36:32.975Z,12.98
2022-11-22T12:39:02.948Z,14.77
2022-11-22T12:41:32.244Z,14.38
2022-11-22T12:44:02.957Z,12.00
2022-11-22T12:46:42.322Z,12.88
2022-11-22T12:49:27.953Z,12.82
2022-11-22T12:52:19.304Z,11.93
2022-11-22T12:54:59.536Z,13.10
2022-11-22T13:00:05.575Z,13.82
2022-11-22T13:02:40.738Z,13.25
2022-11-22T13:05:26.948Z,13.82
2022-11-22T13:08:12.088Z,13.80
2022-11-22T13:10:48.507Z,13.27
2022-11-22T13:13:34.030Z,14.63
2022-11-22T13:16:06.315Z,13.23
2022-11-22T13:18:37.189Z,13.18
2022-11-22T13:21:19.060Z,13.10
2022-11-22T13:24:14.548Z,13.20
2022-11-22T13:26:53.707Z,14.32
2022-11-22T13:29:27.101Z,12.05
2022-11-22T13:32:15.762Z,12.80
2022-11-22T13:35:19.068Z,11.85
2022-11-22T13:37:49.690Z,12.00
2022-11-22T13:40:16.556Z,11.70
2022-11-22T13:42:43.633Z,11.35
2022-11-22T13:45:24.719Z,11.18
2022-11-22T13:47:52.339Z,12.45
2022-11-22T13:50:40.048Z,13.40
2022-11-22T13:53:18.842Z,12.30
2022-11-22T13:55:46.724Z,12.80
2022-11-22T13:58:25.844Z,12.32
2022-11-22T14:00:53.807Z,13.20
2022-11-22T14:03:24.522Z,11.35
2022-11-22T14:05:54.048Z,11.52
2022-11-22T14:08:28.690Z,12.30
2022-11-22T14:10:55.520Z,11.57
2022-11-22T14:13:43.161Z,11.82
2022-11-22T14:16:48.949Z,12.95
2022-11-22T14:19:54.342Z,11.63
2022-11-22T14:22:50.430Z,15.32
2022-11-22T14:25:38.691Z,10.32
2022-11-22T14:28:18.982Z,11.65
2022-11-22T14:30:54.336Z,10.77
2022-11-22T14:33:28.731Z,12.30
2022-11-22T14:36:07.281Z,11.20
2022-11-22T14:38:41.281Z,10.32
2022-11-22T14:41:26.313Z,10.13
2022-11-22T14:43:59.896Z,9.95
2022-11-22T14:46:52.212Z,10.98
2022-11-22T14:49:26.684Z,11.18
2022-11-22T14:51:56.982Z,10.25
2022-11-22T14:54:29.066Z,9.00
2022-11-22T14:57:04.351Z,9.52
2022-11-22T14:59:49.670Z,8.15
2022-11-22T15:02:44.001Z,9.38
2022-11-22T15:09:09.902Z,9.65
2022-11-22T15:09:20.509Z,8.32
2022-11-22T15:12:00.293Z,9.35
2022-11-22T15:14:47.823Z,9.38
2022-11-22T15:57:57.492Z,7.55
2022-11-22T16:00:27.665Z,7.80
2022-11-22T16:06:10.075Z,7.95
2022-11-22T16:08:21.235Z,8.35
2022-11-22T16:10:51.377Z,7.05
2022-11-22T16:13:21.278Z,8.20
2022-11-22T16:16:17.586Z,8.13
2022-11-22T16:18:45.242Z,9.02
2022-11-22T16:21:12.026Z,9.13
2022-11-22T16:23:40.500Z,8.23
2022-11-22T16:26:19.496Z,8.82
2022-11-22T16:28:51.651Z,8.25
2022-11-22T16:31:30.619Z,8.75
2022-11-22T16:33:58.459Z,8.57
2022-11-22T16:36:29.352Z,9.45
2022-11-22T16:38:56.263Z,8.95
2022-11-22T16:41:25.754Z,9.82
2022-11-22T16:43:55.380Z,9.18
2022-11-22T16:46:23.152Z,9.57
2022-11-22T16:48:50.167Z,9.55
2022-11-22T16:51:31.164Z,9.57
2022-11-22T16:54:00.235Z,9.88
2022-11-22T16:56:29.193Z,9.88
2022-11-22T16:58:57.606Z,9.55
2022-11-22T17:01:36.432Z,8.98
2022-11-22T17:04:05.907Z,9.43
2022-11-22T17:06:33.861Z,9.32
2022-11-22T17:09:01.327Z,8.38
2022-11-22T17:11:32.309Z,9.00
2022-11-22T17:14:00.294Z,7.80
2022-11-22T17:16:27.141Z,8.68
2022-11-22T17:18:54.295Z,8.07
2022-11-22T17:21:32.756Z,8.77
2022-11-22T17:26:29.434Z,8.10
2022-11-22T17:28:56.442Z,8.00
2022-11-22T17:31:23.511Z,8.00
2022-11-22T17:33:52.080Z,13.75
2022-11-22T17:36:25.705Z,7.57
2022-11-22T17:38:52.679Z,7.07
2022-11-22T17:41:19.674Z,8.05
2022-11-22T17:43:46.762Z,8.45
2022-11-22T17:46:13.704Z,7.93
2022-11-22T17:48:40.661Z,6.80
2022-11-22T17:51:09.591Z,6.70
2022-11-22T17:53:36.487Z,7.50
2022-11-22T17:56:11.933Z,6.65
2022-11-22T17:58:40.584Z,6.43
2022-11-22T18:01:08.500Z,6.50
2022-11-22T18:03:35.573Z,6.68
2022-11-22T18:06:02.651Z,5.90
2022-11-22T18:08:29.594Z,6.82
2022-11-22T18:10:59.770Z,6.28
2022-11-22T18:16:00.111Z,5.72
2022-11-22T18:18:57.822Z,5.88
2022-11-22T18:21:17.776Z,5.45
2022-11-22T18:23:45.601Z,6.97
2022-11-22T18:34:33.708Z,6.32
2022-11-22T18:37:03.550Z,7.70
2022-11-22T18:39:38.262Z,4.97
2022-11-22T18:42:07.594Z,6.15
2022-11-22T18:44:34.549Z,4.90
2022-11-22T18:47:01.885Z,5.20
2022-11-22T18:49:29.080Z,5.57
2022-11-22T18:51:56.184Z,5.35
2022-11-22T18:54:23.398Z,5.38
2022-11-22T18:56:53.094Z,6.10
2022-11-22T18:59:20.101Z,5.70
2022-11-22T19:01:47.032Z,5.88
2022-11-22T19:04:15.237Z,5.65
2022-11-22T19:06:43.207Z,5.38
2022-11-22T19:09:10.559Z,5.45
2022-11-22T19:11:37.668Z,5.82
2022-11-22T19:14:04.831Z,5.43
2022-11-22T19:16:31.795Z,4.90
2022-11-22T19:18:59.183Z,5.55
2022-11-22T19:21:28.178Z,5.78
2022-11-22T19:23:56.656Z,5.30
2022-11-22T19:26:26.281Z,5.32
2022-11-22T19:28:57.932Z,5.78
2022-11-22T19:31:29.122Z,5.47
2022-11-22T19:33:56.552Z,4.60
2022-11-22T19:36:30.765Z,4.75
2022-11-22T19:38:59.738Z,4.53
2022-11-22T19:41:27.000Z,4.72
2022-11-22T19:43:56.012Z,4.60
2022-11-22T19:46:23.870Z,4.78
2022-11-22T19:48:56.576Z,4.53
2022-11-22T19:51:24.753Z,4.82
2022-11-22T19:54:00.144Z,5.13
2022-11-22T19:56:30.703Z,5.00
2022-11-22T19:58:59.224Z,5.20
2022-11-22T20:01:28.685Z,4.78
2022-11-22T20:04:01.598Z,4.50
2022-11-22T20:06:29.118Z,5.05
2022-11-22T20:09:10.267Z,4.82
2022-11-22T20:11:41.846Z,4.50
2022-11-22T20:14:09.713Z,5.15
2022-11-22T20:16:38.517Z,4.93
2022-11-22T20:19:07.677Z,4.97
2022-11-22T20:21:35.793Z,5.25
2022-11-22T20:24:04.074Z,4.90
2022-11-22T20:26:33.061Z,4.47
2022-11-22T20:29:08.164Z,4.80
2022-11-22T20:31:36.946Z,4.57
2022-11-22T20:34:03.875Z,5.20
2022-11-22T20:36:32.968Z,5.18
2022-11-22T20:39:04.022Z,4.82
2022-11-22T20:41:33.904Z,4.72
2022-11-22T20:44:00.929Z,4.80
2022-11-22T20:46:29.157Z,4.70
2022-11-22T20:49:00.798Z,5.03
2022-11-22T20:51:28.917Z,5.07
2022-11-22T20:53:56.483Z,4.60
2022-11-22T20:56:24.075Z,4.78
2022-11-22T20:58:51.173Z,4.72
2022-11-22T21:01:27.047Z,4.35
2022-11-22T21:03:54.633Z,5.50
2022-11-22T21:06:24.241Z,4.65
2022-11-22T21:08:51.656Z,4.70
2022-11-22T21:11:19.872Z,4.85
2022-11-22T21:13:47.628Z,4.68
2022-11-22T21:16:23.690Z,4.45
2022-11-22T21:18:59.639Z,4.63
2022-11-22T21:21:27.094Z,4.60
2022-11-22T21:23:55.959Z,5.07
2022-11-22T21:26:24.501Z,4.80
2022-11-22T21:28:52.824Z,4.50
2022-11-22T21:31:21.069Z,4.97
2022-11-22T21:33:48.298Z,4.38
2022-11-22T21:36:15.514Z,4.38
2022-11-22T21:38:42.353Z,5.30
2022-11-22T21:44:08.789Z,6.05
2022-11-22T21:46:35.639Z,7.13
2022-11-22T21:49:02.516Z,7.00
2022-11-22T21:51:29.372Z,6.40
2022-11-22T21:53:58.057Z,6.25
2022-11-22T21:56:25.874Z,5.55
2022-11-22T21:58:52.819Z,6.65
2022-11-22T22:01:19.707Z,6.93
2022-11-22T22:03:46.662Z,5.32
2022-11-22T22:06:13.498Z,5.85
2022-11-22T22:08:40.936Z,6.63
2022-11-22T22:11:08.258Z,6.68
2022-11-22T22:13:35.344Z,6.57
2022-11-22T22:16:06.898Z,5.85
2022-11-22T22:18:35.664Z,6.25
2022-11-22T22:21:08.105Z,6.18
2022-11-22T22:23:36.960Z,6.75
2022-11-22T22:26:06.135Z,6.28
2022-11-22T22:28:34.936Z,6.38
2022-11-22T22:31:14.863Z,6.30
2022-11-22T22:33:42.680Z,6.30
2022-11-22T22:36:17.062Z,5.18
2022-11-22T22:39:04.472Z,5.78
2022-11-22T22:41:31.470Z,5.28
2022-11-22T22:43:58.322Z,5.20
2022-11-22T22:46:25.230Z,5.00
2022-11-22T22:48:55.135Z,5.30
2022-11-22T22:51:26.244Z,5.85
2022-11-22T22:53:58.326Z,5.13
2022-11-22T22:56:26.516Z,5.53
2022-11-22T22:58:58.436Z,4.70
2022-11-22T23:01:27.562Z,4.63
2022-11-22T23:03:59.204Z,4.70
2022-11-22T23:06:28.138Z,4.22
2022-11-22T23:08:55.688Z,4.35
2022-11-22T23:11:45.270Z,3.83
2022-11-22T23:14:13.955Z,4.00
2022-11-22T23:16:41.397Z,3.55
2022-11-22T23:19:09.257Z,3.10
2022-11-22T23:21:36.423Z,3.80
2022-11-22T23:24:04.136Z,6.90
2022-11-22T23:26:31.376Z,4.10
2022-11-22T23:28:58.999Z,3.42
2022-11-22T23:31:26.373Z,3.97
2022-11-22T23:33:53.695Z,3.90
2022-11-22T23:36:21.950Z,3.90
2022-11-22T23:38:49.172Z,3.67
2022-11-22T23:41:20.002Z,3.78
2022-11-22T23:43:47.903Z,3.83
2022-11-22T23:46:18.124Z,3.97
2022-11-22T23:51:12.852Z,3.80
2022-11-22T23:53:40.125Z,4.45
2022-11-22T23:56:12.059Z,3.88
2022-11-22T23:58:39.148Z,3.42
